Time;durP1;ratioP1;P1;durP2;ratioP2;P2;SDS_P1;SDS_P2;PMS_P1;PMS_P2;Temp;Humidity;BMP_temperature;BMP_pressure;BME280_temperature;BME280_humidity;BME280_pressure;Samples;Min_cycle;Max_cycle;Signal;HPM_P1;HPM_P2
2022/08/27 00:00:14;;;;;;;44.03;10.32;;;;;;;25.37;100.00;100384.47;4942047;29;20035;-75
2022/08/27 00:03:01;;;;;;;29.58;9.10;;;;;;;25.13;100.00;100389.16;4940524;29;20032;-76
2022/08/27 00:05:47;;;;;;;34.95;9.00;;;;;;;24.97;100.00;100388.72;4940316;29;20059;-75
2022/08/27 00:08:33;;;;;;;40.03;9.35;;;;;;;25.13;100.00;100385.59;4927638;29;20060;-75
2022/08/27 00:11:20;;;;;;;45.05;9.40;;;;;;;25.37;100.00;100392.50;4939989;29;20099;-75
2022/08/27 00:14:06;;;;;;;32.38;9.48;;;;;;;25.35;100.00;100394.47;4927641;29;20106;-75
2022/08/27 00:16:52;;;;;;;38.85;9.32;;;;;;;25.01;100.00;100397.34;4927111;29;20127;-75
2022/08/27 00:19:39;;;;;;;32.78;9.00;;;;;;;25.00;100.00;100393.78;4939637;29;20040;-74
2022/08/27 00:22:25;;;;;;;39.10;9.10;;;;;;;24.90;100.00;100395.53;4940568;29;20036;-74
2022/08/27 00:25:11;;;;;;;38.30;8.88;;;;;;;24.92;100.00;100393.59;4940754;29;20078;-76
2022/08/27 00:27:57;;;;;;;34.22;9.07;;;;;;;25.05;100.00;100398.78;4926333;29;20038;-75
2022/08/27 00:30:43;;;;;;;47.10;10.80;;;;;;;25.09;100.00;100402.94;4941290;29;20028;-75
2022/08/27 00:33:29;;;;;;;34.78;8.57;;;;;;;25.31;100.00;100408.28;4940491;29;20322;-75
2022/08/27 00:36:15;;;;;;;49.03;10.32;;;;;;;25.24;100.00;100404.34;4941079;29;20080;-75
2022/08/27 00:39:01;;;;;;;33.10;8.43;;;;;;;25.28;100.00;100411.19;4939841;29;20055;-75
2022/08/27 00:41:47;;;;;;;39.55;9.88;;;;;;;25.32;100.00;100418.00;4940318;29;20099;-75
2022/08/27 00:44:33;;;;;;;36.83;9.02;;;;;;;25.24;100.00;100417.75;4939041;29;20042;-75
2022/08/27 00:47:24;;;;;;;29.48;9.32;;;;;;;25.01;100.00;100419.66;4938672;29;20042;-76
2022/08/27 00:50:14;;;;;;;33.75;9.85;;;;;;;25.08;100.00;100422.69;4940388;29;20039;-75
2022/08/27 00:53:04;;;;;;;39.38;9.85;;;;;;;25.15;100.00;100416.69;4939679;29;20106;-75
2022/08/27 00:56:05;;;;;;;39.10;10.70;;;;;;;25.38;100.00;100413.00;4939964;29;20031;-75
2022/08/27 00:58:55;;;;;;;34.60;10.18;;;;;;;24.96;100.00;100421.88;4941061;29;20039;-74
2022/08/27 01:05:04;;;;;;;36.03;10.20;;;;;;;25.17;100.00;100419.22;4939979;29;20051;-75
2022/08/27 01:08:00;;;;;;;50.67;11.38;;;;;;;25.03;100.00;100420.34;4939368;29;20075;-75
2022/08/27 01:10:47;;;;;;;52.75;10.73;;;;;;;25.00;100.00;100415.25;4939189;29;20032;-75
2022/08/27 01:13:33;;;;;;;42.85;10.00;;;;;;;24.99;100.00;100420.75;4940212;29;20059;-74
2022/08/27 01:16:23;;;;;;;40.75;9.57;;;;;;;25.30;100.00;100412.78;4939329;29;20106;-75
2022/08/27 01:19:20;;;;;;;53.00;10.75;;;;;;;25.07;100.00;100413.78;4938364;29;20036;-75
2022/08/27 01:22:06;;;;;;;43.75;10.02;;;;;;;25.33;100.00;100417.03;4939336;29;20086;-75
2022/08/27 01:24:55;;;;;;;33.00;9.90;;;;;;;25.13;100.00;100417.78;4939276;29;20365;-76
2022/08/27 01:27:43;;;;;;;38.83;10.82;;;;;;;25.29;100.00;100416.44;4925882;29;20107;-76
2022/08/27 01:30:30;;;;;;;34.30;10.05;;;;;;;24.82;100.00;100415.88;4926109;29;20036;-76
2022/08/27 01:33:18;;;;;;;50.13;10.48;;;;;;;24.78;100.00;100417.09;4926057;29;20040;-76
2022/08/27 01:36:05;;;;;;;47.83;10.88;;;;;;;24.65;100.00;100419.06;4939279;29;20031;-76
2022/08/27 01:38:51;;;;;;;34.15;9.88;;;;;;;25.03;100.00;100430.25;4940468;29;20119;-75
2022/08/27 01:41:36;;;;;;;37.08;10.27;;;;;;;24.99;100.00;100420.75;4939858;29;20035;-76
2022/08/27 01:44:22;;;;;;;40.05;10.63;;;;;;;24.95;100.00;100420.13;4938889;29;20081;-76
2022/08/27 01:47:08;;;;;;;43.92;11.15;;;;;;;24.93;100.00;100426.59;4939518;29;20043;-76
2022/08/27 01:49:54;;;;;;;35.67;10.18;;;;;;;24.77;100.00;100418.97;4938772;29;20024;-75
2022/08/27 01:52:41;;;;;;;40.95;11.15;;;;;;;24.79;100.00;100417.00;4939002;29;20028;-75
2022/08/27 01:55:27;;;;;;;34.45;10.25;;;;;;;24.71;100.00;100421.28;4924296;29;20369;-75
2022/08/27 01:58:12;;;;;;;52.75;11.48;;;;;;;24.75;100.00;100415.53;4938653;29;20035;-75
2022/08/27 02:01:05;;;;;;;45.17;10.52;;;;;;;24.60;100.00;100419.44;4939027;29;20041;-75
2022/08/27 02:03:51;;;;;;;39.72;10.90;;;;;;;24.79;100.00;100426.88;4938110;29;20063;-75
2022/08/27 02:06:36;;;;;;;42.30;11.48;;;;;;;24.65;100.00;100430.66;4939015;29;20055;-76
2022/08/27 02:09:23;;;;;;;43.53;11.45;;;;;;;24.70;100.00;100431.13;4938908;29;20035;-76
2022/08/27 02:12:09;;;;;;;42.10;10.35;;;;;;;24.77;100.00;100424.31;4939980;29;20338;-76
2022/08/27 02:14:54;;;;;;;35.53;8.88;;;;;;;24.80;100.00;100432.13;4938429;29;20501;-75
2022/08/27 02:17:40;;;;;;;43.63;9.38;;;;;;;24.62;100.00;100430.91;4924530;29;20043;-76
2022/08/27 02:20:26;;;;;;;37.75;8.38;;;;;;;24.52;100.00;100435.25;4939011;29;20444;-76
2022/08/27 02:23:13;;;;;;;48.08;8.65;;;;;;;24.35;100.00;100432.19;4925738;29;20350;-75
2022/08/27 02:25:59;;;;;;;42.65;9.02;;;;;;;24.41;100.00;100429.88;4939758;29;20414;-76
2022/08/27 02:28:45;;;;;;;34.72;7.78;;;;;;;24.13;100.00;100426.81;4925340;29;20027;-75
2022/08/27 02:31:31;;;;;;;35.20;7.88;;;;;;;24.10;100.00;100427.06;4938707;29;20038;-75
2022/08/27 02:34:17;;;;;;;35.63;8.20;;;;;;;23.79;100.00;100433.84;4938068;29;20027;-75
2022/08/27 02:37:03;;;;;;;41.40;8.35;;;;;;;24.07;100.00;100427.28;4925104;29;20027;-75
2022/08/27 02:39:49;;;;;;;40.72;8.23;;;;;;;23.60;100.00;100432.69;4925130;29;20389;-75
2022/08/27 02:42:34;;;;;;;33.22;8.80;;;;;;;24.06;100.00;100423.75;4938232;29;20126;-75
2022/08/27 02:45:20;;;;;;;46.20;9.45;;;;;;;23.86;100.00;100431.59;4939026;29;20521;-74
2022/08/27 02:48:06;;;;;;;37.40;8.35;;;;;;;24.28;100.00;100426.47;4936868;29;20110;-76
2022/08/27 02:50:53;;;;;;;32.35;8.10;;;;;;;24.08;100.00;100424.50;4937063;29;20028;-75
2022/08/27 02:53:39;;;;;;;37.17;8.55;;;;;;;23.98;100.00;100420.81;4936700;29;20027;-75
2022/08/27 02:56:25;;;;;;;49.65;8.68;;;;;;;24.12;100.00;100423.28;4938894;29;20032;-75
2022/08/27 02:59:10;;;;;;;44.28;8.85;;;;;;;23.85;100.00;100416.47;4938161;29;20440;-76
2022/08/27 03:01:56;;;;;;;39.70;8.60;;;;;;;23.82;100.00;100422.94;4938504;29;20062;-76
2022/08/27 03:04:42;;;;;;;36.65;9.50;;;;;;;23.75;100.00;100418.19;4937289;29;20465;-75
2022/08/27 03:07:27;;;;;;;33.33;9.73;;;;;;;23.78;100.00;100421.47;4938534;29;20028;-76
2022/08/27 03:10:16;;;;;;;40.33;9.32;;;;;;;23.70;100.00;100429.22;4936651;29;20023;-76
2022/08/27 03:13:02;;;;;;;30.67;9.27;;;;;;;23.77;100.00;100429.59;4937630;29;20043;-76
2022/08/27 03:15:48;;;;;;;36.50;9.70;;;;;;;23.81;100.00;100431.06;4936631;29;20032;-76
2022/08/27 03:18:34;;;;;;;32.72;9.95;;;;;;;23.91;100.00;100429.41;4937263;29;20437;-76
2022/08/27 03:21:25;;;;;;;35.08;9.75;;;;;;;24.01;100.00;100428.63;4937505;29;20114;-76
2022/08/27 03:24:11;;;;;;;38.65;10.48;;;;;;;23.90;100.00;100428.53;4936375;29;20039;-76
2022/08/27 03:26:58;;;;;;;53.10;11.20;;;;;;;24.06;100.00;100433.63;4937569;29;20035;-75
2022/08/27 03:29:43;;;;;;;40.63;10.93;;;;;;;24.25;100.00;100434.75;4938540;29;20024;-76
2022/08/27 03:32:29;;;;;;;33.50;9.90;;;;;;;23.95;100.00;100430.91;4938317;29;20504;-75
2022/08/27 03:35:16;;;;;;;36.25;9.80;;;;;;;24.04;100.00;100444.44;4936241;29;20103;-76
2022/08/27 03:38:02;;;;;;;38.92;10.25;;;;;;;24.10;100.00;100441.28;4937037;29;20350;-76
2022/08/27 03:40:49;;;;;;;42.67;11.40;;;;;;;23.86;100.00;100436.94;4937297;29;20046;-76
2022/08/27 03:43:34;;;;;;;43.67;10.32;;;;;;;24.04;100.00;100441.78;4937414;29;20042;-76
2022/08/27 03:46:21;;;;;;;33.80;10.15;;;;;;;24.02;100.00;100441.03;4937248;29;20074;-76
2022/08/27 03:49:07;;;;;;;42.17;10.35;;;;;;;23.94;100.00;100454.13;4937172;29;20028;-76
2022/08/27 03:51:53;;;;;;;36.85;10.00;;;;;;;23.85;100.00;100446.78;4937856;29;20090;-76
2022/08/27 03:54:39;;;;;;;39.78;10.57;;;;;;;23.57;100.00;100447.16;4937554;29;20031;-76
2022/08/27 03:57:25;;;;;;;39.58;10.77;;;;;;;23.83;100.00;100450.56;4937165;29;20091;-76
2022/08/27 04:00:12;;;;;;;36.92;10.77;;;;;;;23.75;100.00;100445.75;4937338;29;20043;-75
2022/08/27 04:02:58;;;;;;;38.03;10.15;;;;;;;23.91;100.00;100450.81;4937261;29;20042;-75
2022/08/27 04:05:44;;;;;;;42.38;10.75;;;;;;;24.15;100.00;100451.66;4917420;29;20474;-75
2022/08/27 04:08:30;;;;;;;45.20;10.23;;;;;;;24.32;100.00;100451.19;4918229;29;20042;-75
2022/08/27 04:11:16;;;;;;;38.83;9.60;;;;;;;24.21;100.00;100449.34;4918004;29;20039;-75
2022/08/27 04:14:04;;;;;;;37.90;9.98;;;;;;;24.07;100.00;100457.56;4917940;29;20469;-75
2022/08/27 04:16:49;;;;;;;40.60;9.32;;;;;;;24.36;100.00;100458.88;4917995;29;20115;-76
2022/08/27 04:19:35;;;;;;;33.35;9.20;;;;;;;24.66;100.00;100455.59;4918285;29;20040;-75
2022/08/27 04:22:22;;;;;;;31.60;8.77;;;;;;;24.52;100.00;100455.81;4917749;29;20036;-75
2022/08/27 04:25:08;;;;;;;35.55;9.13;;;;;;;24.20;100.00;100455.69;4917508;29;20399;-75
2022/08/27 04:27:54;;;;;;;38.80;9.32;;;;;;;24.56;100.00;100465.31;4920383;29;20032;-74
2022/08/27 04:30:44;;;;;;;43.30;8.90;;;;;;;24.67;100.00;100468.06;4922104;29;20504;-76
2022/08/27 04:33:33;;;;;;;36.78;8.85;;;;;;;24.86;100.00;100471.81;4921751;29;20040;-76
2022/08/27 04:36:19;;;;;;;47.88;9.82;;;;;;;24.72;100.00;100472.06;4920982;29;20032;-76
2022/08/27 04:39:05;;;;;;;47.67;9.30;;;;;;;25.08;100.00;100471.78;4921535;29;20402;-76
2022/08/27 04:41:54;;;;;;;31.05;9.10;;;;;;;25.20;100.00;100476.13;4922351;29;20028;-75
2022/08/27 04:44:39;;;;;;;52.20;9.45;;;;;;;25.17;100.00;100478.22;4921228;29;20032;-76
2022/08/27 04:47:25;;;;;;;44.75;9.13;;;;;;;25.29;100.00;100480.81;4921218;29;20461;-76
2022/08/27 04:50:11;;;;;;;38.30;8.30;;;;;;;24.80;100.00;100477.69;4921217;29;20104;-76
2022/08/27 04:52:57;;;;;;;32.63;9.38;;;;;;;25.09;100.00;100492.28;4921075;29;20042;-76
2022/08/27 04:55:49;;;;;;;34.72;8.57;;;;;;;25.16;100.00;100487.25;4919884;29;20032;-75
2022/08/27 04:58:35;;;;;;;37.22;8.38;;;;;;;24.97;100.00;100485.22;4920646;29;20335;-76
2022/08/27 05:01:23;;;;;;;41.28;8.55;;;;;;;25.16;100.00;100487.25;4920661;29;20118;-76
2022/08/27 05:04:12;;;;;;;33.58;8.82;;;;;;;25.18;100.00;100490.66;4921333;29;20047;-75
2022/08/27 05:07:00;;;;;;;37.83;8.75;;;;;;;25.21;100.00;100496.66;4940201;29;20565;-75
2022/08/27 05:09:46;;;;;;;29.92;8.35;;;;;;;25.19;100.00;100495.91;4926570;29;20043;-76
2022/08/27 05:12:31;;;;;;;34.78;8.60;;;;;;;25.39;100.00;100499.69;4939612;29;20036;-76
2022/08/27 05:15:17;;;;;;;31.25;7.40;;;;;;;25.50;100.00;100503.19;4939492;29;20035;-76
2022/08/27 05:18:04;;;;;;;36.15;8.88;;;;;;;25.65;100.00;100507.28;4938649;29;20356;-75
2022/08/27 05:20:50;;;;;;;33.92;9.90;;;;;;;25.44;100.00;100506.34;4926174;29;20023;-75
2022/08/27 05:23:36;;;;;;;36.35;10.02;;;;;;;25.43;100.00;100510.03;4940791;29;20035;-74
2022/08/27 05:26:22;;;;;;;37.80;10.00;;;;;;;25.29;100.00;100510.31;4939189;29;20097;-76
2022/08/27 05:29:08;;;;;;;35.38;9.15;;;;;;;24.78;100.00;100510.91;4939438;29;20026;-75
2022/08/27 05:31:55;;;;;;;35.88;9.18;;;;;;;24.91;100.00;100519.69;4940593;29;20047;-75
2022/08/27 05:34:41;;;;;;;29.85;9.98;;;;;;;25.22;100.00;100526.97;4925808;29;20059;-75
2022/08/27 05:37:27;;;;;;;30.73;9.88;;;;;;;24.99;100.00;100517.25;4939226;29;20111;-75
2022/08/27 05:40:12;;;;;;;31.30;8.88;;;;;;;25.16;100.00;100531.00;4938356;29;20474;-75
2022/08/27 05:42:58;;;;;;;45.50;9.07;;;;;;;25.28;100.00;100530.03;4939123;29;20027;-76
2022/08/27 05:45:47;;;;;;;35.03;10.30;;;;;;;25.29;100.00;100534.44;4925592;29;20047;-76
2022/08/27 05:48:34;;;;;;;46.13;10.25;;;;;;;25.29;100.00;100536.28;4939450;29;20027;-76
2022/08/27 05:51:30;;;;;;;43.65;10.85;;;;;;;25.45;100.00;100545.66;4940401;29;20050;-76
2022/08/27 05:54:18;;;;;;;37.85;10.63;;;;;;;25.38;100.00;100544.44;4925509;29;20103;-76
2022/08/27 05:57:04;;;;;;;42.88;11.98;;;;;;;25.42;100.00;100537.84;4925861;29;20437;-76
2022/08/27 06:03:11;;;;;;;40.13;12.02;;;;;;;25.70;100.00;100531.91;4932341;29;20043;-76
2022/08/27 06:06:07;;;;;;;43.55;12.23;;;;;;;25.52;100.00;100528.03;4938675;29;20066;-75
2022/08/27 06:08:53;;;;;;;42.65;12.20;;;;;;;25.81;100.00;100537.25;4939908;29;20369;-76
2022/08/27 06:11:40;;;;;;;36.15;12.27;;;;;;;25.56;100.00;100534.03;4938734;29;20039;-76
2022/08/27 06:14:26;;;;;;;38.38;11.73;;;;;;;25.96;100.00;100540.53;4938608;29;20023;-75
2022/08/27 06:17:12;;;;;;;46.53;11.77;;;;;;;25.82;100.00;100544.31;4938969;29;20027;-76
2022/08/27 06:19:58;;;;;;;38.88;11.18;;;;;;;25.76;100.00;100549.34;4939098;29;20152;-76
2022/08/27 06:22:44;;;;;;;35.28;11.32;;;;;;;26.16;100.00;100548.59;4938530;29;20119;-76
2022/08/27 06:25:31;;;;;;;41.92;10.85;;;;;;;26.31;100.00;100555.34;4938437;29;20039;-75
2022/08/27 06:28:20;;;;;;;35.72;10.90;;;;;;;26.03;100.00;100555.13;4939350;29;20078;-76
2022/08/27 06:31:09;;;;;;;35.90;10.65;;;;;;;26.24;100.00;100553.34;4938482;29;20032;-75
2022/08/27 06:34:00;;;;;;;36.55;12.07;;;;;;;25.74;100.00;100554.84;4938209;29;20461;-77
2022/08/27 06:36:45;;;;;;;41.00;11.43;;;;;;;25.70;100.00;100561.44;4939054;29;20036;-76
2022/08/27 06:39:31;;;;;;;34.60;10.10;;;;;;;26.22;100.00;100558.84;4938336;29;20032;-74
2022/08/27 06:42:17;;;;;;;47.28;10.93;;;;;;;26.52;100.00;100556.22;4938571;29;20377;-76
2022/08/27 06:45:04;;;;;;;34.30;10.50;;;;;;;26.49;100.00;100543.03;4938066;29;20365;-75
2022/08/27 06:47:50;;;;;;;40.80;10.20;;;;;;;26.82;100.00;100556.28;4938064;29;20109;-75
2022/08/27 06:50:40;;;;;;;33.53;9.50;;;;;;;27.41;100.00;100557.25;4937924;29;20042;-77
2022/08/27 06:53:26;;;;;;;41.72;10.50;;;;;;;27.35;100.00;100559.66;4938335;29;20043;-76
2022/08/27 06:56:14;;;;;;;33.95;9.82;;;;;;;27.44;100.00;100559.69;4939108;29;20436;-76
2022/08/27 06:59:02;;;;;;;43.17;9.95;;;;;;;27.05;100.00;100565.88;4925095;29;20035;-76
2022/08/27 07:01:50;;;;;;;35.38;9.30;;;;;;;27.55;100.00;100566.78;4938387;29;20475;-76
2022/08/27 07:04:36;;;;;;;40.92;8.68;;;;;;;27.52;100.00;100569.75;4936185;29;20454;-76
2022/08/27 07:07:21;;;;;;;31.73;8.60;;;;;;;27.48;100.00;100570.19;4937924;29;20038;-76
2022/08/27 07:10:07;;;;;;;35.08;8.73;;;;;;;27.75;100.00;100576.63;4938064;29;20027;-76
2022/08/27 07:12:54;;;;;;;40.88;9.05;;;;;;;27.93;100.00;100577.69;4937355;29;20065;-75
2022/08/27 07:15:40;;;;;;;32.38;9.50;;;;;;;27.70;100.00;100568.13;4937370;29;20031;-75
2022/08/27 07:18:27;;;;;;;34.25;9.10;;;;;;;27.87;100.00;100574.66;4937393;29;20027;-76
2022/08/27 07:21:13;;;;;;;46.22;8.93;;;;;;;27.81;100.00;100583.28;4937632;29;20418;-75
2022/08/27 07:24:03;;;;;;;37.88;9.65;;;;;;;28.04;100.00;100577.53;4937702;29;20111;-76
2022/08/27 07:26:49;;;;;;;31.88;8.90;;;;;;;28.04;100.00;100576.69;4937258;29;20023;-75
2022/08/27 07:29:35;;;;;;;36.42;9.25;;;;;;;28.16;98.37;100575.56;4937917;29;20032;-76
2022/08/27 07:32:20;;;;;;;39.45;10.30;;;;;;;28.62;96.78;100573.00;4937630;29;20046;-76
2022/08/27 07:35:08;;;;;;;42.42;9.73;;;;;;;28.35;98.50;100575.53;4937751;29;20027;-76
2022/08/27 07:37:54;;;;;;;40.35;9.90;;;;;;;28.85;95.21;100566.28;4937706;29;20035;-76
2022/08/27 07:40:39;;;;;;;53.55;9.63;;;;;;;29.32;92.13;100567.94;4924590;29;20032;-76
2022/08/27 07:46:29;;;;;;;34.10;9.50;;;;;;;29.48;88.76;100571.72;4937916;29;20051;-76
2022/08/27 07:49:19;;;;;;;52.70;9.48;;;;;;;29.28;88.88;100569.25;4937082;29;20453;-75
2022/08/27 07:52:05;;;;;;;36.90;8.40;;;;;;;29.62;86.84;100579.31;4938229;29;20588;-76
2022/08/27 07:54:51;;;;;;;42.80;9.93;;;;;;;29.69;85.01;100575.03;4936693;29;20027;-76
2022/08/27 07:57:37;;;;;;;33.80;8.80;;;;;;;29.39;87.63;100578.03;4924151;29;20072;-76
2022/08/27 08:00:23;;;;;;;48.63;9.45;;;;;;;29.73;83.99;100573.72;4923430;29;20449;-77
2022/08/27 08:03:10;;;;;;;44.75;8.45;;;;;;;30.17;81.36;100570.16;4939210;29;20178;-76
2022/08/27 08:06:02;;;;;;;41.42;8.88;;;;;;;30.40;79.50;100568.66;4940365;29;20059;-76
2022/08/27 08:08:48;;;;;;;49.47;9.75;;;;;;;30.02;79.80;100577.06;4941029;29;20059;-76
2022/08/27 08:11:35;;;;;;;35.05;8.63;;;;;;;30.47;79.32;100571.59;4941919;29;20142;-76
2022/08/27 08:14:21;;;;;;;40.25;8.90;;;;;;;30.39;77.29;100577.81;4940487;29;20035;-76
2022/08/27 08:17:07;;;;;;;50.97;9.50;;;;;;;31.10;73.42;100562.25;4940836;29;20151;-76
2022/08/27 08:19:54;;;;;;;43.60;9.65;;;;;;;30.72;72.30;100574.38;4940592;29;20023;-76
2022/08/27 08:22:40;;;;;;;45.33;9.50;;;;;;;31.25;65.59;100566.06;4941010;29;20082;-76
2022/08/27 08:25:26;;;;;;;50.13;9.35;;;;;;;31.10;65.44;100573.09;4938907;29;20059;-76
2022/08/27 08:28:12;;;;;;;34.35;8.05;;;;;;;31.13;64.06;100573.59;4940800;29;20095;-76
2022/08/27 08:30:58;;;;;;;40.20;8.88;;;;;;;31.91;59.78;100572.44;4941008;29;20019;-76
2022/08/27 08:33:46;;;;;;;41.05;8.23;;;;;;;31.80;61.03;100569.16;4940543;29;20040;-76
2022/08/27 08:36:32;;;;;;;46.15;8.65;;;;;;;32.36;57.44;100574.69;4939935;29;20063;-76
2022/08/27 08:39:18;;;;;;;41.75;8.85;;;;;;;32.66;56.84;100569.44;4940113;29;20024;-75
2022/08/27 08:42:07;;;;;;;36.05;7.05;;;;;;;32.37;54.63;100570.97;4939815;29;20461;-76
2022/08/27 08:44:54;;;;;;;40.08;8.13;;;;;;;32.30;55.97;100578.94;4939799;29;20042;-75
2022/08/27 08:47:47;;;;;;;34.88;7.95;;;;;;;32.11;55.45;100573.81;4913441;29;20424;-76
2022/08/27 08:50:38;;;;;;;34.40;7.85;;;;;;;32.65;54.51;100578.59;4939654;29;20027;-76
2022/08/27 08:54:02;;;;;;;38.40;7.88;;;;;;;32.92;52.87;100571.97;4940832;29;20119;-76
2022/08/27 08:57:29;;;;;;;33.05;7.65;;;;;;;33.10;52.32;100572.63;4939578;29;20107;-76
2022/08/27 09:00:15;;;;;;;39.60;7.85;;;;;;;32.75;50.89;100565.66;4864647;29;20117;-77
2022/08/27 09:03:01;;;;;;;34.75;7.63;;;;;;;32.98;48.51;100565.84;4864284;29;20033;-77
2022/08/27 09:06:31;;;;;;;31.48;7.18;;;;;;;33.11;49.56;100569.69;4917405;29;20051;-76
2022/08/27 09:09:24;;;;;;;40.60;7.70;;;;;;;32.87;50.14;100564.31;4879042;29;20040;-76
2022/08/27 09:12:17;;;;;;;28.05;7.07;;;;;;;33.44;48.60;100562.31;4926169;29;20090;-76
2022/08/27 09:15:14;;;;;;;34.85;7.38;;;;;;;33.44;50.45;100563.19;4939420;29;20074;-76
2022/08/27 09:18:11;;;;;;;31.42;6.97;;;;;;;33.11;49.63;100574.31;4938889;29;20475;-76
2022/08/27 09:21:07;;;;;;;44.63;7.65;;;;;;;33.25;47.59;100568.13;4939526;29;20468;-76
2022/08/27 09:24:14;;;;;;;38.72;7.95;;;;;;;33.08;49.17;100567.34;4926502;29;20027;-77
2022/08/27 09:26:59;;;;;;;40.17;7.90;;;;;;;33.22;48.43;100563.06;4939698;29;20032;-76
2022/08/27 09:29:49;;;;;;;37.03;7.18;;;;;;;33.19;48.59;100560.69;4939193;29;20322;-76
2022/08/27 09:32:35;;;;;;;39.75;7.05;;;;;;;33.58;48.04;100564.28;4940217;29;20127;-76
2022/08/27 09:35:22;;;;;;;41.40;7.85;;;;;;;33.67;47.08;100564.06;4939828;29;20054;-77
2022/08/27 09:38:08;;;;;;;43.17;7.38;;;;;;;33.14;47.04;100563.09;4938858;29;20469;-77
2022/08/27 09:40:59;;;;;;;33.88;7.63;;;;;;;33.55;46.69;100562.75;4939863;29;20198;-76
2022/08/27 09:44:09;;;;;;;37.30;7.47;;;;;;;33.28;45.10;100562.34;4924984;29;20067;-76
2022/08/27 09:46:58;;;;;;;39.08;7.43;;;;;;;33.47;44.11;100562.81;4926435;29;20051;-76
2022/08/27 09:49:44;;;;;;;34.75;7.55;;;;;;;33.40;42.80;100558.25;4939244;29;20032;-76
2022/08/27 09:52:34;;;;;;;39.50;7.20;;;;;;;33.43;42.44;100556.03;4938178;29;20071;-76
2022/08/27 09:55:47;;;;;;;39.22;7.28;;;;;;;33.20;42.76;100562.38;4939923;29;20028;-76
2022/08/27 09:58:50;;;;;;;37.63;6.60;;;;;;;33.34;41.35;100556.22;4925818;29;20031;-77
2022/08/27 10:01:59;;;;;;;36.17;6.78;;;;;;;33.26;41.21;100550.81;4939315;29;20027;-76
2022/08/27 10:04:51;;;;;;;39.83;6.65;;;;;;;33.03;41.93;100552.59;4939376;29;20051;-76
2022/08/27 10:07:54;;;;;;;50.13;7.65;;;;;;;33.12;41.01;100560.56;4925684;29;20042;-76
2022/08/27 10:10:51;;;;;;;35.72;6.47;;;;;;;32.92;39.80;100561.09;4937822;29;20062;-77
2022/08/27 10:13:48;;;;;;;39.83;6.70;;;;;;;33.18;38.32;100553.56;4938877;29;20034;-76
2022/08/27 10:16:58;;;;;;;53.83;7.65;;;;;;;32.83;38.99;100546.69;4925234;29;20027;-76
2022/08/27 10:19:56;;;;;;;45.92;7.80;;;;;;;33.37;38.87;100555.88;4925914;29;20369;-76
2022/08/27 10:22:57;;;;;;;46.30;7.85;;;;;;;33.59;37.82;100563.28;4925826;29;20087;-75
2022/08/27 10:25:48;;;;;;;39.75;7.45;;;;;;;33.87;38.29;100559.88;4937602;29;20024;-77
2022/08/27 10:28:49;;;;;;;47.22;7.15;;;;;;;34.12;37.14;100557.88;4938163;29;20110;-76
2022/08/27 10:32:09;;;;;;;37.60;6.82;;;;;;;33.86;38.00;100562.78;4933516;29;20028;-76
2022/08/27 10:35:01;;;;;;;47.78;7.95;;;;;;;33.67;38.09;100563.22;4939961;29;20028;-77
2022/08/27 10:38:07;;;;;;;44.85;7.55;;;;;;;33.86;38.46;100549.19;4937510;29;20057;-77
2022/08/27 10:41:01;;;;;;;45.75;7.38;;;;;;;34.12;38.15;100560.59;4937100;29;20047;-76
2022/08/27 10:44:07;;;;;;;51.75;8.23;;;;;;;33.04;39.25;100557.84;4938815;29;20032;-76
2022/08/27 10:47:18;;;;;;;51.72;7.75;;;;;;;33.66;38.58;100556.94;4925633;29;20052;-77
2022/08/27 10:50:13;;;;;;;38.65;7.57;;;;;;;34.24;38.30;100562.69;4937364;29;20086;-77
2022/08/27 10:53:10;;;;;;;50.08;9.10;;;;;;;34.45;38.69;100548.44;4939155;29;20027;-76
2022/08/27 10:56:13;;;;;;;64.90;8.40;;;;;;;34.57;37.88;100550.53;4925082;29;20034;-76
2022/08/27 10:59:30;;;;;;;54.42;7.50;;;;;;;34.28;38.29;100546.84;4938055;29;20129;-76
2022/08/27 11:02:32;;;;;;;49.70;8.15;;;;;;;34.59;38.53;100548.47;4938435;29;20095;-76
2022/08/27 11:05:45;;;;;;;48.10;8.13;;;;;;;34.20;37.79;100557.81;4918836;29;20127;-76
2022/08/27 11:08:41;;;;;;;47.75;8.18;;;;;;;34.07;37.83;100549.41;4918840;29;20024;-76
2022/08/27 11:11:36;;;;;;;48.80;7.13;;;;;;;34.11;38.97;100550.75;4918819;29;20343;-76
2022/08/27 11:14:52;;;;;;;37.20;6.93;;;;;;;34.45;39.25;100551.16;4918651;29;20043;-76
2022/08/27 11:17:59;;;;;;;57.45;8.07;;;;;;;34.29;38.46;100538.53;4919082;29;20042;-76
2022/08/27 11:21:03;;;;;;;43.45;7.45;;;;;;;35.43;37.49;100550.78;4919459;29;20076;-78
2022/08/27 11:23:57;;;;;;;41.78;7.72;;;;;;;35.32;36.95;100543.13;4919288;29;20043;-76
2022/08/27 11:26:44;;;;;;;53.45;9.07;;;;;;;33.95;37.72;100540.81;4919524;29;20043;-76
2022/08/27 11:29:42;;;;;;;46.78;7.35;;;;;;;33.96;38.58;100545.22;4920458;29;20032;-76
2022/08/27 11:32:45;;;;;;;52.97;8.38;;;;;;;34.83;38.13;100537.34;4919109;29;20032;-76
2022/08/27 11:35:53;;;;;;;50.90;8.02;;;;;;;34.52;38.79;100533.91;4918853;29;20032;-75
2022/08/27 11:38:49;;;;;;;37.70;7.57;;;;;;;35.47;36.78;100541.22;4917633;29;20082;-76
2022/08/27 11:41:56;;;;;;;51.92;7.43;;;;;;;34.69;36.91;100540.03;4918486;29;20103;-76
2022/08/27 11:44:45;;;;;;;39.70;7.53;;;;;;;34.71;37.27;100527.06;4918068;29;20028;-75
2022/08/27 11:47:31;;;;;;;50.28;8.02;;;;;;;34.52;37.28;100533.91;4917447;29;20139;-75
2022/08/27 11:50:19;;;;;;;44.63;7.80;;;;;;;34.87;36.17;100526.94;4917252;29;20028;-76
2022/08/27 11:53:06;;;;;;;49.53;8.05;;;;;;;34.87;37.01;100527.78;4918746;29;20048;-76
2022/08/27 11:55:52;;;;;;;45.90;7.35;;;;;;;35.73;35.77;100521.59;4918103;29;20039;-77
2022/08/27 11:58:39;;;;;;;50.83;8.52;;;;;;;35.29;35.69;100524.44;4918433;29;20036;-77
2022/08/27 12:01:28;;;;;;;41.25;8.65;;;;;;;35.56;36.03;100523.72;4918433;29;20346;-76
2022/08/27 12:04:32;;;;;;;36.15;7.82;;;;;;;35.86;35.71;100525.34;4919023;29;20466;-75
2022/08/27 12:07:17;;;;;;;51.97;7.90;;;;;;;35.13;35.59;100510.97;4937989;29;20416;-78
2022/08/27 12:10:42;;;;;;;39.58;7.22;;;;;;;35.78;34.73;100517.28;4924194;29;20116;-76
2022/08/27 12:14:03;;;;;;;38.65;7.72;;;;;;;35.25;34.70;100520.34;4860640;29;20101;-76
2022/08/27 12:17:24;;;;;;;44.45;7.55;;;;;;;35.49;35.50;100511.91;4929237;29;20075;-76
2022/08/27 12:20:48;;;;;;;46.67;7.55;;;;;;;35.53;35.69;100509.63;4880349;29;20067;-75
2022/08/27 12:24:12;;;;;;;50.72;8.07;;;;;;;34.95;36.24;100494.16;4928704;29;20103;-76
2022/08/27 12:27:16;;;;;;;35.78;7.72;;;;;;;35.36;36.28;100494.53;4937738;29;20036;-79
2022/08/27 12:30:21;;;;;;;42.97;7.18;;;;;;;35.73;35.05;100491.59;4937742;29;20027;-76
2022/08/27 12:33:27;;;;;;;46.28;7.82;;;;;;;35.48;34.72;100493.84;4936520;29;20032;-75
2022/08/27 12:36:25;;;;;;;40.30;6.97;;;;;;;35.94;34.59;100489.75;4937044;29;20027;-76
2022/08/27 12:39:16;;;;;;;44.35;7.45;;;;;;;36.17;33.90;100495.00;4937575;29;20453;-76
2022/08/27 12:42:11;;;;;;;39.97;7.30;;;;;;;36.08;33.63;100488.84;4923642;29;20098;-78
2022/08/27 12:44:58;;;;;;;49.47;7.97;;;;;;;35.37;33.84;100486.16;4923790;29;20035;-76
2022/08/27 12:47:44;;;;;;;39.17;7.85;;;;;;;35.68;33.70;100488.63;4936631;29;20132;-76
2022/08/27 12:50:30;;;;;;;36.45;7.47;;;;;;;35.40;33.72;100487.66;4927625;29;20099;-76
2022/08/27 12:53:26;;;;;;;41.97;7.10;;;;;;;35.32;33.75;100491.34;4939698;29;20036;-75
2022/08/27 12:56:39;;;;;;;45.97;7.55;;;;;;;35.30;34.89;100490.69;4938939;29;20449;-76
2022/08/27 12:59:40;;;;;;;30.75;6.88;;;;;;;35.70;34.34;100489.25;4940478;29;20040;-75
2022/08/27 13:03:01;;;;;;;60.58;8.48;;;;;;;35.17;35.14;100475.00;4941599;29;20027;-75
2022/08/27 13:05:49;;;;;;;51.83;8.45;;;;;;;35.35;35.73;100479.22;4940978;29;20385;-76